sensor_id;sensor_type;location;lat;lon;timestamp;P1;durP1;ratioP1;P2;durP2;ratioP2
41061;SDS011;26812;42.662;23.352;2023-03-05T00:02:15;22.83;;;13.55;;
41061;SDS011;26812;42.662;23.352;2023-03-05T00:04:40;23.42;;;13.27;;
41061;SDS011;26812;42.662;23.352;2023-03-05T00:07:06;24.90;;;12.35;;
41061;SDS011;26812;42.662;23.352;2023-03-05T00:09:33;22.90;;;12.80;;
41061;SDS011;26812;42.662;23.352;2023-03-05T00:11:59;24.17;;;14.93;;
41061;SDS011;26812;42.662;23.352;2023-03-05T00:14:24;21.77;;;14.02;;
41061;SDS011;26812;42.662;23.352;2023-03-05T00:16:50;24.60;;;14.32;;
41061;SDS011;26812;42.662;23.352;2023-03-05T00:19:15;22.95;;;12.82;;
41061;SDS011;26812;42.662;23.352;2023-03-05T00:21:41;23.92;;;13.82;;
41061;SDS011;26812;42.662;23.352;2023-03-05T00:24:08;24.17;;;13.88;;
41061;SDS011;26812;42.662;23.352;2023-03-05T00:26:39;20.95;;;13.88;;
41061;SDS011;26812;42.662;23.352;2023-03-05T00:29:05;25.65;;;13.57;;
41061;SDS011;26812;42.662;23.352;2023-03-05T00:31:32;23.67;;;12.65;;
41061;SDS011;26812;42.662;23.352;2023-03-05T00:34:01;24.77;;;13.93;;
41061;SDS011;26812;42.662;23.352;2023-03-05T00:36:28;22.27;;;12.80;;
41061;SDS011;26812;42.662;23.352;2023-03-05T00:38:55;20.48;;;13.25;;
41061;SDS011;26812;42.662;23.352;2023-03-05T00:41:20;21.25;;;12.15;;
41061;SDS011;26812;42.662;23.352;2023-03-05T00:43:46;20.73;;;12.65;;
41061;SDS011;26812;42.662;23.352;2023-03-05T00:46:12;20.08;;;11.88;;
41061;SDS011;26812;42.662;23.352;2023-03-05T00:48:37;24.23;;;14.00;;
41061;SDS011;26812;42.662;23.352;2023-03-05T00:51:03;20.13;;;11.48;;
41061;SDS011;26812;42.662;23.352;2023-03-05T00:53:28;20.75;;;12.40;;
41061;SDS011;26812;42.662;23.352;2023-03-05T00:55:54;22.65;;;12.90;;
41061;SDS011;26812;42.662;23.352;2023-03-05T00:58:20;21.23;;;12.45;;
41061;SDS011;26812;42.662;23.352;2023-03-05T01:00:45;23.67;;;13.27;;
41061;SDS011;26812;42.662;23.352;2023-03-05T01:03:14;21.10;;;11.90;;
41061;SDS011;26812;42.662;23.352;2023-03-05T01:05:40;23.05;;;12.13;;
41061;SDS011;26812;42.662;23.352;2023-03-05T01:08:05;24.08;;;11.77;;
41061;SDS011;26812;42.662;23.352;2023-03-05T01:10:37;20.70;;;12.95;;
41061;SDS011;26812;42.662;23.352;2023-03-05T01:13:03;24.60;;;12.55;;
41061;SDS011;26812;42.662;23.352;2023-03-05T01:15:28;22.02;;;12.77;;
41061;SDS011;26812;42.662;23.352;2023-03-05T01:17:53;21.30;;;13.63;;
41061;SDS011;26812;42.662;23.352;2023-03-05T01:20:19;22.27;;;11.65;;
41061;SDS011;26812;42.662;23.352;2023-03-05T01:22:46;22.67;;;11.60;;
41061;SDS011;26812;42.662;23.352;2023-03-05T01:25:12;21.13;;;11.98;;
41061;SDS011;26812;42.662;23.352;2023-03-05T01:27:38;18.13;;;11.57;;
41061;SDS011;26812;42.662;23.352;2023-03-05T01:30:05;18.67;;;11.18;;
41061;SDS011;26812;42.662;23.352;2023-03-05T01:32:32;20.85;;;11.85;;
41061;SDS011;26812;42.662;23.352;2023-03-05T01:35:01;21.00;;;12.10;;
41061;SDS011;26812;42.662;23.352;2023-03-05T01:37:28;18.17;;;11.60;;
41061;SDS011;26812;42.662;23.352;2023-03-05T01:39:53;20.50;;;11.48;;
41061;SDS011;26812;42.662;23.352;2023-03-05T01:42:19;19.48;;;11.48;;
41061;SDS011;26812;42.662;23.352;2023-03-05T01:47:38;19.30;;;10.98;;
41061;SDS011;26812;42.662;23.352;2023-03-05T01:50:04;20.33;;;11.52;;
41061;SDS011;26812;42.662;23.352;2023-03-05T01:52:34;17.90;;;11.45;;
41061;SDS011;26812;42.662;23.352;2023-03-05T01:55:03;17.73;;;10.65;;
41061;SDS011;26812;42.662;23.352;2023-03-05T01:58:15;19.83;;;11.07;;
41061;SDS011;26812;42.662;23.352;2023-03-05T02:00:51;18.83;;;12.80;;
41061;SDS011;26812;42.662;23.352;2023-03-05T02:03:16;20.13;;;11.35;;
41061;SDS011;26812;42.662;23.352;2023-03-05T02:05:42;20.63;;;11.70;;
41061;SDS011;26812;42.662;23.352;2023-03-05T02:08:15;18.77;;;11.02;;
41061;SDS011;26812;42.662;23.352;2023-03-05T02:13:11;19.17;;;11.70;;
41061;SDS011;26812;42.662;23.352;2023-03-05T02:15:39;20.80;;;11.20;;
41061;SDS011;26812;42.662;23.352;2023-03-05T02:18:06;19.02;;;11.05;;
41061;SDS011;26812;42.662;23.352;2023-03-05T02:23:34;17.70;;;10.38;;
41061;SDS011;26812;42.662;23.352;2023-03-05T02:26:02;22.45;;;11.40;;
41061;SDS011;26812;42.662;23.352;2023-03-05T02:28:34;17.45;;;11.10;;
41061;SDS011;26812;42.662;23.352;2023-03-05T02:31:07;18.58;;;11.15;;
41061;SDS011;26812;42.662;23.352;2023-03-05T02:33:40;16.42;;;10.20;;
41061;SDS011;26812;42.662;23.352;2023-03-05T02:36:06;20.40;;;10.55;;
41061;SDS011;26812;42.662;23.352;2023-03-05T02:38:32;22.00;;;11.13;;
41061;SDS011;26812;42.662;23.352;2023-03-05T02:40:58;20.60;;;11.55;;
41061;SDS011;26812;42.662;23.352;2023-03-05T02:43:23;18.52;;;11.60;;
41061;SDS011;26812;42.662;23.352;2023-03-05T02:45:49;18.42;;;11.90;;
41061;SDS011;26812;42.662;23.352;2023-03-05T02:48:15;20.52;;;11.02;;
41061;SDS011;26812;42.662;23.352;2023-03-05T02:50:40;19.52;;;10.65;;
41061;SDS011;26812;42.662;23.352;2023-03-05T02:53:07;17.98;;;10.60;;
41061;SDS011;26812;42.662;23.352;2023-03-05T02:55:32;20.50;;;11.23;;
41061;SDS011;26812;42.662;23.352;2023-03-05T02:57:58;22.70;;;12.15;;
41061;SDS011;26812;42.662;23.352;2023-03-05T03:00:23;23.63;;;12.85;;
41061;SDS011;26812;42.662;23.352;2023-03-05T03:02:50;17.58;;;11.20;;
41061;SDS011;26812;42.662;23.352;2023-03-05T03:05:16;19.00;;;11.60;;
41061;SDS011;26812;42.662;23.352;2023-03-05T03:07:41;21.85;;;12.00;;
41061;SDS011;26812;42.662;23.352;2023-03-05T03:10:07;20.95;;;12.10;;
41061;SDS011;26812;42.662;23.352;2023-03-05T03:12:42;26.35;;;13.02;;
41061;SDS011;26812;42.662;23.352;2023-03-05T03:15:09;23.95;;;12.50;;
41061;SDS011;26812;42.662;23.352;2023-03-05T03:17:36;21.67;;;12.30;;
41061;SDS011;26812;42.662;23.352;2023-03-05T03:20:03;26.73;;;12.75;;
41061;SDS011;26812;42.662;23.352;2023-03-05T03:22:30;23.27;;;13.35;;
41061;SDS011;26812;42.662;23.352;2023-03-05T03:24:56;23.58;;;13.25;;
41061;SDS011;26812;42.662;23.352;2023-03-05T03:27:22;24.48;;;13.13;;
41061;SDS011;26812;42.662;23.352;2023-03-05T03:29:47;21.05;;;11.90;;
41061;SDS011;26812;42.662;23.352;2023-03-05T03:32:13;24.02;;;12.70;;
41061;SDS011;26812;42.662;23.352;2023-03-05T03:34:38;25.70;;;13.00;;
41061;SDS011;26812;42.662;23.352;2023-03-05T03:37:04;22.67;;;12.82;;
41061;SDS011;26812;42.662;23.352;2023-03-05T03:39:30;24.85;;;13.88;;
41061;SDS011;26812;42.662;23.352;2023-03-05T03:41:55;23.45;;;11.95;;
41061;SDS011;26812;42.662;23.352;2023-03-05T03:44:21;28.67;;;14.07;;
41061;SDS011;26812;42.662;23.352;2023-03-05T03:46:47;24.10;;;12.73;;
41061;SDS011;26812;42.662;23.352;2023-03-05T03:49:15;28.55;;;13.90;;
41061;SDS011;26812;42.662;23.352;2023-03-05T03:51:45;22.48;;;13.52;;
41061;SDS011;26812;42.662;23.352;2023-03-05T03:54:12;26.20;;;14.23;;
41061;SDS011;26812;42.662;23.352;2023-03-05T03:56:38;22.60;;;12.98;;
41061;SDS011;26812;42.662;23.352;2023-03-05T03:59:03;25.05;;;13.43;;
41061;SDS011;26812;42.662;23.352;2023-03-05T04:01:29;22.00;;;13.50;;
41061;SDS011;26812;42.662;23.352;2023-03-05T04:03:54;24.08;;;12.98;;
41061;SDS011;26812;42.662;23.352;2023-03-05T04:06:20;27.55;;;13.32;;
41061;SDS011;26812;42.662;23.352;2023-03-05T04:08:45;26.58;;;14.20;;
41061;SDS011;26812;42.662;23.352;2023-03-05T04:11:10;26.63;;;15.63;;
41061;SDS011;26812;42.662;23.352;2023-03-05T04:13:36;24.27;;;11.90;;
41061;SDS011;26812;42.662;23.352;2023-03-05T04:16:01;24.42;;;13.68;;
41061;SDS011;26812;42.662;23.352;2023-03-05T04:18:27;30.30;;;13.10;;
41061;SDS011;26812;42.662;23.352;2023-03-05T04:20:53;25.40;;;14.57;;
41061;SDS011;26812;42.662;23.352;2023-03-05T04:23:18;27.35;;;13.15;;
41061;SDS011;26812;42.662;23.352;2023-03-05T04:25:44;26.30;;;12.75;;
41061;SDS011;26812;42.662;23.352;2023-03-05T04:28:09;22.90;;;12.57;;
41061;SDS011;26812;42.662;23.352;2023-03-05T04:30:35;23.13;;;12.63;;
41061;SDS011;26812;42.662;23.352;2023-03-05T04:33:01;23.48;;;12.30;;
41061;SDS011;26812;42.662;23.352;2023-03-05T04:35:26;25.67;;;13.02;;
41061;SDS011;26812;42.662;23.352;2023-03-05T04:37:52;20.17;;;12.85;;
41061;SDS011;26812;42.662;23.352;2023-03-05T04:40:17;27.83;;;13.38;;
41061;SDS011;26812;42.662;23.352;2023-03-05T04:42:43;25.15;;;12.65;;
41061;SDS011;26812;42.662;23.352;2023-03-05T04:45:08;19.10;;;11.18;;
41061;SDS011;26812;42.662;23.352;2023-03-05T04:47:35;23.98;;;11.95;;
41061;SDS011;26812;42.662;23.352;2023-03-05T04:50:01;25.45;;;14.10;;
41061;SDS011;26812;42.662;23.352;2023-03-05T04:52:27;20.13;;;12.77;;
41061;SDS011;26812;42.662;23.352;2023-03-05T04:54:53;22.60;;;14.32;;
41061;SDS011;26812;42.662;23.352;2023-03-05T04:57:18;27.02;;;12.93;;
41061;SDS011;26812;42.662;23.352;2023-03-05T04:59:44;24.02;;;12.57;;
41061;SDS011;26812;42.662;23.352;2023-03-05T05:02:09;26.40;;;14.45;;
41061;SDS011;26812;42.662;23.352;2023-03-05T05:04:35;23.80;;;12.82;;
41061;SDS011;26812;42.662;23.352;2023-03-05T05:07:00;20.35;;;12.75;;
41061;SDS011;26812;42.662;23.352;2023-03-05T05:09:26;20.90;;;11.85;;
41061;SDS011;26812;42.662;23.352;2023-03-05T05:11:51;26.05;;;12.82;;
41061;SDS011;26812;42.662;23.352;2023-03-05T05:14:17;22.88;;;12.35;;
41061;SDS011;26812;42.662;23.352;2023-03-05T05:16:43;24.60;;;12.85;;
41061;SDS011;26812;42.662;23.352;2023-03-05T05:19:08;25.52;;;13.00;;
41061;SDS011;26812;42.662;23.352;2023-03-05T05:21:34;25.48;;;12.10;;
41061;SDS011;26812;42.662;23.352;2023-03-05T05:23:59;19.52;;;12.10;;
41061;SDS011;26812;42.662;23.352;2023-03-05T05:26:25;24.80;;;13.57;;
41061;SDS011;26812;42.662;23.352;2023-03-05T05:28:51;21.33;;;12.30;;
41061;SDS011;26812;42.662;23.352;2023-03-05T05:31:16;21.67;;;12.35;;
41061;SDS011;26812;42.662;23.352;2023-03-05T05:33:42;19.80;;;11.15;;
41061;SDS011;26812;42.662;23.352;2023-03-05T05:36:09;23.40;;;11.52;;
41061;SDS011;26812;42.662;23.352;2023-03-05T05:38:36;24.63;;;12.23;;
41061;SDS011;26812;42.662;23.352;2023-03-05T05:41:05;21.48;;;12.30;;
41061;SDS011;26812;42.662;23.352;2023-03-05T05:43:33;20.70;;;12.32;;
41061;SDS011;26812;42.662;23.352;2023-03-05T05:45:59;22.70;;;10.85;;
41061;SDS011;26812;42.662;23.352;2023-03-05T05:48:27;21.65;;;11.23;;
41061;SDS011;26812;42.662;23.352;2023-03-05T05:50:56;21.80;;;11.60;;
41061;SDS011;26812;42.662;23.352;2023-03-05T05:53:22;20.17;;;10.82;;
41061;SDS011;26812;42.662;23.352;2023-03-05T05:55:48;24.13;;;11.90;;
41061;SDS011;26812;42.662;23.352;2023-03-05T05:58:14;21.13;;;10.60;;
41061;SDS011;26812;42.662;23.352;2023-03-05T06:00:40;22.05;;;11.13;;
41061;SDS011;26812;42.662;23.352;2023-03-05T06:03:05;16.75;;;10.55;;
41061;SDS011;26812;42.662;23.352;2023-03-05T06:05:32;20.10;;;11.43;;
41061;SDS011;26812;42.662;23.352;2023-03-05T06:07:57;21.88;;;10.18;;
41061;SDS011;26812;42.662;23.352;2023-03-05T06:10:23;19.05;;;10.45;;
41061;SDS011;26812;42.662;23.352;2023-03-05T06:12:48;17.10;;;9.38;;
41061;SDS011;26812;42.662;23.352;2023-03-05T06:15:14;25.90;;;10.32;;
41061;SDS011;26812;42.662;23.352;2023-03-05T06:17:39;19.75;;;10.30;;
41061;SDS011;26812;42.662;23.352;2023-03-05T06:20:05;16.92;;;9.82;;
41061;SDS011;26812;42.662;23.352;2023-03-05T06:22:34;20.10;;;10.20;;
41061;SDS011;26812;42.662;23.352;2023-03-05T06:25:01;20.90;;;10.93;;
41061;SDS011;26812;42.662;23.352;2023-03-05T06:27:27;17.70;;;10.50;;
41061;SDS011;26812;42.662;23.352;2023-03-05T06:29:52;22.23;;;10.77;;
41061;SDS011;26812;42.662;23.352;2023-03-05T06:32:18;19.15;;;10.23;;
41061;SDS011;26812;42.662;23.352;2023-03-05T06:34:44;21.08;;;10.80;;
41061;SDS011;26812;42.662;23.352;2023-03-05T06:37:10;17.30;;;9.70;;
41061;SDS011;26812;42.662;23.352;2023-03-05T06:39:35;19.35;;;10.50;;
41061;SDS011;26812;42.662;23.352;2023-03-05T06:42:00;16.08;;;10.07;;
41061;SDS011;26812;42.662;23.352;2023-03-05T06:44:26;19.50;;;9.80;;
41061;SDS011;26812;42.662;23.352;2023-03-05T06:46:51;20.73;;;10.70;;
41061;SDS011;26812;42.662;23.352;2023-03-05T06:49:17;17.20;;;9.68;;
41061;SDS011;26812;42.662;23.352;2023-03-05T06:51:42;18.45;;;9.65;;
41061;SDS011;26812;42.662;23.352;2023-03-05T06:54:09;18.38;;;10.27;;
41061;SDS011;26812;42.662;23.352;2023-03-05T06:56:36;18.63;;;9.73;;
41061;SDS011;26812;42.662;23.352;2023-03-05T06:59:03;19.70;;;10.27;;
41061;SDS011;26812;42.662;23.352;2023-03-05T07:01:29;18.30;;;11.73;;
41061;SDS011;26812;42.662;23.352;2023-03-05T07:03:54;16.77;;;10.68;;
41061;SDS011;26812;42.662;23.352;2023-03-05T07:06:23;21.25;;;9.65;;
41061;SDS011;26812;42.662;23.352;2023-03-05T07:08:49;21.45;;;11.82;;
41061;SDS011;26812;42.662;23.352;2023-03-05T07:11:18;17.98;;;10.07;;
41061;SDS011;26812;42.662;23.352;2023-03-05T07:13:44;16.70;;;9.73;;
41061;SDS011;26812;42.662;23.352;2023-03-05T07:16:14;21.55;;;10.63;;
41061;SDS011;26812;42.662;23.352;2023-03-05T07:18:42;17.08;;;10.75;;
41061;SDS011;26812;42.662;23.352;2023-03-05T07:21:08;18.50;;;11.32;;
41061;SDS011;26812;42.662;23.352;2023-03-05T07:23:34;21.50;;;11.75;;
41061;SDS011;26812;42.662;23.352;2023-03-05T07:26:06;20.65;;;11.38;;
41061;SDS011;26812;42.662;23.352;2023-03-05T07:28:32;19.80;;;10.80;;
41061;SDS011;26812;42.662;23.352;2023-03-05T07:30:59;16.67;;;11.07;;
41061;SDS011;26812;42.662;23.352;2023-03-05T07:33:26;19.08;;;11.02;;
41061;SDS011;26812;42.662;23.352;2023-03-05T07:35:52;20.35;;;11.13;;
41061;SDS011;26812;42.662;23.352;2023-03-05T07:38:17;19.90;;;11.20;;
41061;SDS011;26812;42.662;23.352;2023-03-05T07:40:43;20.05;;;11.95;;
41061;SDS011;26812;42.662;23.352;2023-03-05T07:43:08;25.15;;;10.65;;
41061;SDS011;26812;42.662;23.352;2023-03-05T07:45:37;19.80;;;12.32;;
41061;SDS011;26812;42.662;23.352;2023-03-05T07:48:03;17.73;;;10.90;;
41061;SDS011;26812;42.662;23.352;2023-03-05T07:50:29;22.35;;;11.95;;
41061;SDS011;26812;42.662;23.352;2023-03-05T07:52:56;21.13;;;10.95;;
41061;SDS011;26812;42.662;23.352;2023-03-05T07:55:22;21.92;;;12.32;;
41061;SDS011;26812;42.662;23.352;2023-03-05T07:57:47;23.08;;;15.25;;
41061;SDS011;26812;42.662;23.352;2023-03-05T08:00:13;23.60;;;12.70;;
41061;SDS011;26812;42.662;23.352;2023-03-05T08:02:39;23.02;;;13.35;;
41061;SDS011;26812;42.662;23.352;2023-03-05T08:05:04;20.90;;;12.98;;
41061;SDS011;26812;42.662;23.352;2023-03-05T08:07:30;20.65;;;12.07;;
41061;SDS011;26812;42.662;23.352;2023-03-05T08:09:55;25.45;;;12.68;;
41061;SDS011;26812;42.662;23.352;2023-03-05T08:12:21;23.70;;;13.77;;
41061;SDS011;26812;42.662;23.352;2023-03-05T08:14:47;27.40;;;14.25;;
41061;SDS011;26812;42.662;23.352;2023-03-05T08:17:12;24.67;;;12.57;;
41061;SDS011;26812;42.662;23.352;2023-03-05T08:19:38;25.90;;;12.38;;
41061;SDS011;26812;42.662;23.352;2023-03-05T08:22:04;26.63;;;13.60;;
41061;SDS011;26812;42.662;23.352;2023-03-05T08:24:29;25.95;;;13.68;;
41061;SDS011;26812;42.662;23.352;2023-03-05T08:26:55;23.30;;;13.88;;
41061;SDS011;26812;42.662;23.352;2023-03-05T08:29:22;23.73;;;13.43;;
41061;SDS011;26812;42.662;23.352;2023-03-05T08:31:47;22.35;;;13.68;;
41061;SDS011;26812;42.662;23.352;2023-03-05T08:34:13;25.98;;;13.30;;
41061;SDS011;26812;42.662;23.352;2023-03-05T08:36:39;23.55;;;13.20;;
41061;SDS011;26812;42.662;23.352;2023-03-05T08:39:11;24.50;;;14.25;;
41061;SDS011;26812;42.662;23.352;2023-03-05T08:41:37;24.08;;;13.48;;
41061;SDS011;26812;42.662;23.352;2023-03-05T08:44:03;23.75;;;13.45;;
41061;SDS011;26812;42.662;23.352;2023-03-05T08:46:28;24.90;;;13.65;;
41061;SDS011;26812;42.662;23.352;2023-03-05T08:48:54;22.95;;;13.13;;
41061;SDS011;26812;42.662;23.352;2023-03-05T08:51:21;23.02;;;13.48;;
41061;SDS011;26812;42.662;23.352;2023-03-05T08:53:49;29.65;;;13.25;;
41061;SDS011;26812;42.662;23.352;2023-03-05T08:56:16;23.95;;;12.75;;
41061;SDS011;26812;42.662;23.352;2023-03-05T08:58:42;24.17;;;14.10;;
41061;SDS011;26812;42.662;23.352;2023-03-05T09:01:10;21.42;;;12.75;;
41061;SDS011;26812;42.662;23.352;2023-03-05T09:03:35;25.00;;;13.45;;
41061;SDS011;26812;42.662;23.352;2023-03-05T09:06:02;21.13;;;12.40;;
41061;SDS011;26812;42.662;23.352;2023-03-05T09:08:30;25.83;;;13.25;;
41061;SDS011;26812;42.662;23.352;2023-03-05T09:10:55;23.75;;;13.23;;
41061;SDS011;26812;42.662;23.352;2023-03-05T09:13:21;22.08;;;12.80;;
41061;SDS011;26812;42.662;23.352;2023-03-05T09:15:52;23.00;;;12.73;;
41061;SDS011;26812;42.662;23.352;2023-03-05T09:18:22;22.42;;;13.60;;
41061;SDS011;26812;42.662;23.352;2023-03-05T09:20:47;22.88;;;12.57;;
41061;SDS011;26812;42.662;23.352;2023-03-05T09:23:13;22.58;;;13.05;;
41061;SDS011;26812;42.662;23.352;2023-03-05T09:25:41;22.70;;;12.32;;
41061;SDS011;26812;42.662;23.352;2023-03-05T09:28:07;20.83;;;13.10;;
41061;SDS011;26812;42.662;23.352;2023-03-05T09:30:32;21.48;;;11.60;;
41061;SDS011;26812;42.662;23.352;2023-03-05T09:33:02;20.40;;;13.38;;
41061;SDS011;26812;42.662;23.352;2023-03-05T09:35:28;20.13;;;11.60;;
41061;SDS011;26812;42.662;23.352;2023-03-05T09:37:54;24.83;;;12.60;;
41061;SDS011;26812;42.662;23.352;2023-03-05T09:40:19;20.73;;;11.55;;
41061;SDS011;26812;42.662;23.352;2023-03-05T09:51:04;19.40;;;10.80;;
41061;SDS011;26812;42.662;23.352;2023-03-05T09:53:45;19.05;;;11.40;;
41061;SDS011;26812;42.662;23.352;2023-03-05T09:56:18;18.25;;;12.05;;
41061;SDS011;26812;42.662;23.352;2023-03-05T09:58:49;19.13;;;10.90;;
41061;SDS011;26812;42.662;23.352;2023-03-05T10:01:20;22.90;;;12.43;;
41061;SDS011;26812;42.662;23.352;2023-03-05T10:03:53;21.67;;;10.83;;
41061;SDS011;26812;42.662;23.352;2023-03-05T10:12:04;18.77;;;10.93;;
41061;SDS011;26812;42.662;23.352;2023-03-05T10:14:45;20.20;;;11.18;;
41061;SDS011;26812;42.662;23.352;2023-03-05T10:28:33;15.07;;;9.57;;
41061;SDS011;26812;42.662;23.352;2023-03-05T10:34:08;18.30;;;10.88;;
41061;SDS011;26812;42.662;23.352;2023-03-05T10:39:40;17.20;;;11.05;;
41061;SDS011;26812;42.662;23.352;2023-03-05T10:45:01;16.27;;;10.30;;
41061;SDS011;26812;42.662;23.352;2023-03-05T10:50:44;12.88;;;8.65;;
41061;SDS011;26812;42.662;23.352;2023-03-05T10:53:16;14.48;;;9.32;;
41061;SDS011;26812;42.662;23.352;2023-03-05T10:55:49;14.85;;;9.68;;
41061;SDS011;26812;42.662;23.352;2023-03-05T10:58:20;15.15;;;9.18;;
41061;SDS011;26812;42.662;23.352;2023-03-05T11:01:00;16.02;;;9.27;;
41061;SDS011;26812;42.662;23.352;2023-03-05T11:03:52;13.43;;;8.73;;
41061;SDS011;26812;42.662;23.352;2023-03-05T11:06:52;10.57;;;8.18;;
41061;SDS011;26812;42.662;23.352;2023-03-05T11:11:42;13.85;;;8.07;;
41061;SDS011;26812;42.662;23.352;2023-03-05T11:14:21;14.52;;;9.13;;
41061;SDS011;26812;42.662;23.352;2023-03-05T11:16:54;14.50;;;9.32;;
41061;SDS011;26812;42.662;23.352;2023-03-05T11:19:20;14.77;;;9.27;;
41061;SDS011;26812;42.662;23.352;2023-03-05T11:24:43;17.38;;;10.43;;
41061;SDS011;26812;42.662;23.352;2023-03-05T11:27:23;14.48;;;9.55;;
41061;SDS011;26812;42.662;23.352;2023-03-05T11:29:55;16.50;;;10.05;;
41061;SDS011;26812;42.662;23.352;2023-03-05T11:32:22;13.40;;;9.32;;
41061;SDS011;26812;42.662;23.352;2023-03-05T11:34:49;12.00;;;8.05;;
41061;SDS011;26812;42.662;23.352;2023-03-05T11:37:26;17.08;;;9.32;;
41061;SDS011;26812;42.662;23.352;2023-03-05T11:42:57;12.55;;;8.43;;
41061;SDS011;26812;42.662;23.352;2023-03-05T11:45:25;13.00;;;7.78;;
41061;SDS011;26812;42.662;23.352;2023-03-05T11:47:53;18.70;;;9.80;;
41061;SDS011;26812;42.662;23.352;2023-03-05T11:50:29;14.77;;;9.50;;
41061;SDS011;26812;42.662;23.352;2023-03-05T11:52:56;12.90;;;9.07;;
41061;SDS011;26812;42.662;23.352;2023-03-05T12:00:52;12.30;;;8.32;;
41061;SDS011;26812;42.662;23.352;2023-03-05T12:03:26;11.55;;;8.07;;
41061;SDS011;26812;42.662;23.352;2023-03-05T12:05:56;13.35;;;8.93;;
41061;SDS011;26812;42.662;23.352;2023-03-05T12:08:32;13.63;;;8.43;;
41061;SDS011;26812;42.662;23.352;2023-03-05T12:11:03;13.82;;;8.75;;
41061;SDS011;26812;42.662;23.352;2023-03-05T12:13:36;11.85;;;7.80;;
41061;SDS011;26812;42.662;23.352;2023-03-05T12:19:14;11.30;;;8.00;;
41061;SDS011;26812;42.662;23.352;2023-03-05T12:21:48;12.45;;;7.95;;
41061;SDS011;26812;42.662;23.352;2023-03-05T12:29:26;14.63;;;7.03;;
41061;SDS011;26812;42.662;23.352;2023-03-05T12:32:02;10.63;;;7.32;;
41061;SDS011;26812;42.662;23.352;2023-03-05T12:38:08;13.13;;;8.57;;
41061;SDS011;26812;42.662;23.352;2023-03-05T12:47:46;11.93;;;7.20;;
41061;SDS011;26812;42.662;23.352;2023-03-05T13:03:57;9.70;;;7.13;;
41061;SDS011;26812;42.662;23.352;2023-03-05T13:06:25;12.77;;;7.85;;
41061;SDS011;26812;42.662;23.352;2023-03-05T13:08:59;13.45;;;8.23;;
41061;SDS011;26812;42.662;23.352;2023-03-05T13:11:33;13.40;;;8.57;;
41061;SDS011;26812;42.662;23.352;2023-03-05T13:14:01;14.80;;;8.20;;
41061;SDS011;26812;42.662;23.352;2023-03-05T13:16:28;15.35;;;8.50;;
41061;SDS011;26812;42.662;23.352;2023-03-05T13:19:01;12.85;;;8.32;;
41061;SDS011;26812;42.662;23.352;2023-03-05T13:21:28;12.98;;;7.53;;
41061;SDS011;26812;42.662;23.352;2023-03-05T13:24:00;14.85;;;9.32;;
41061;SDS011;26812;42.662;23.352;2023-03-05T13:26:28;13.75;;;8.95;;
41061;SDS011;26812;42.662;23.352;2023-03-05T13:31:34;13.95;;;8.80;;
41061;SDS011;26812;42.662;23.352;2023-03-05T13:36:39;14.48;;;8.57;;
41061;SDS011;26812;42.662;23.352;2023-03-05T13:39:16;13.10;;;7.88;;
41061;SDS011;26812;42.662;23.352;2023-03-05T13:41:53;12.68;;;8.63;;
41061;SDS011;26812;42.662;23.352;2023-03-05T13:44:21;15.60;;;8.52;;
41061;SDS011;26812;42.662;23.352;2023-03-05T13:46:46;14.27;;;9.57;;
41061;SDS011;26812;42.662;23.352;2023-03-05T13:49:30;13.60;;;8.77;;
41061;SDS011;26812;42.662;23.352;2023-03-05T13:51:56;15.27;;;9.15;;
41061;SDS011;26812;42.662;23.352;2023-03-05T13:54:26;15.20;;;9.18;;
41061;SDS011;26812;42.662;23.352;2023-03-05T13:57:03;13.75;;;8.75;;
41061;SDS011;26812;42.662;23.352;2023-03-05T13:59:31;13.85;;;9.35;;
41061;SDS011;26812;42.662;23.352;2023-03-05T14:02:04;10.57;;;7.50;;
41061;SDS011;26812;42.662;23.352;2023-03-05T14:04:41;14.88;;;9.05;;
41061;SDS011;26812;42.662;23.352;2023-03-05T14:07:50;17.02;;;9.02;;
41061;SDS011;26812;42.662;23.352;2023-03-05T14:10:23;17.23;;;9.75;;
41061;SDS011;26812;42.662;23.352;2023-03-05T14:12:53;15.82;;;8.93;;
41061;SDS011;26812;42.662;23.352;2023-03-05T14:15:21;14.00;;;9.23;;
41061;SDS011;26812;42.662;23.352;2023-03-05T14:17:51;13.57;;;8.93;;
41061;SDS011;26812;42.662;23.352;2023-03-05T14:22:48;14.85;;;9.38;;
41061;SDS011;26812;42.662;23.352;2023-03-05T14:27:49;13.98;;;9.07;;
41061;SDS011;26812;42.662;23.352;2023-03-05T14:30:17;16.40;;;9.98;;
41061;SDS011;26812;42.662;23.352;2023-03-05T14:32:45;15.13;;;9.45;;
41061;SDS011;26812;42.662;23.352;2023-03-05T14:35:16;13.73;;;8.90;;
41061;SDS011;26812;42.662;23.352;2023-03-05T14:37:47;22.63;;;10.88;;
41061;SDS011;26812;42.662;23.352;2023-03-05T14:47:46;18.45;;;10.10;;
41061;SDS011;26812;42.662;23.352;2023-03-05T14:50:38;17.23;;;10.52;;
41061;SDS011;26812;42.662;23.352;2023-03-05T14:53:20;15.43;;;10.10;;
41061;SDS011;26812;42.662;23.352;2023-03-05T14:55:52;16.15;;;10.32;;
41061;SDS011;26812;42.662;23.352;2023-03-05T14:58:21;21.92;;;10.43;;
41061;SDS011;26812;42.662;23.352;2023-03-05T15:00:52;16.73;;;10.30;;
41061;SDS011;26812;42.662;23.352;2023-03-05T15:03:18;14.73;;;9.80;;
41061;SDS011;26812;42.662;23.352;2023-03-05T15:05:45;13.25;;;9.27;;
41061;SDS011;26812;42.662;23.352;2023-03-05T15:08:14;14.77;;;9.27;;
41061;SDS011;26812;42.662;23.352;2023-03-05T15:10:44;14.88;;;9.15;;
41061;SDS011;26812;42.662;23.352;2023-03-05T15:13:11;15.93;;;9.32;;
41061;SDS011;26812;42.662;23.352;2023-03-05T15:15:38;14.63;;;8.93;;
41061;SDS011;26812;42.662;23.352;2023-03-05T15:18:08;17.15;;;10.07;;
41061;SDS011;26812;42.662;23.352;2023-03-05T15:20:40;16.60;;;10.48;;
41061;SDS011;26812;42.662;23.352;2023-03-05T15:23:06;16.80;;;10.65;;
41061;SDS011;26812;42.662;23.352;2023-03-05T15:25:32;16.58;;;9.15;;
41061;SDS011;26812;42.662;23.352;2023-03-05T15:27:58;18.95;;;9.95;;
41061;SDS011;26812;42.662;23.352;2023-03-05T15:30:25;15.60;;;9.88;;
41061;SDS011;26812;42.662;23.352;2023-03-05T15:32:56;17.85;;;10.63;;
41061;SDS011;26812;42.662;23.352;2023-03-05T15:35:23;19.00;;;10.40;;
41061;SDS011;26812;42.662;23.352;2023-03-05T15:37:49;18.00;;;10.90;;
41061;SDS011;26812;42.662;23.352;2023-03-05T15:40:15;18.33;;;10.30;;
41061;SDS011;26812;42.662;23.352;2023-03-05T15:42:41;16.10;;;9.75;;
41061;SDS011;26812;42.662;23.352;2023-03-05T15:45:06;18.60;;;9.95;;
41061;SDS011;26812;42.662;23.352;2023-03-05T15:47:32;16.92;;;9.75;;
41061;SDS011;26812;42.662;23.352;2023-03-05T15:49:58;14.27;;;10.13;;
41061;SDS011;26812;42.662;23.352;2023-03-05T15:52:23;17.08;;;9.40;;
41061;SDS011;26812;42.662;23.352;2023-03-05T15:54:49;18.13;;;10.43;;
41061;SDS011;26812;42.662;23.352;2023-03-05T15:57:14;15.15;;;9.88;;
41061;SDS011;26812;42.662;23.352;2023-03-05T15:59:41;17.08;;;9.60;;
41061;SDS011;26812;42.662;23.352;2023-03-05T16:02:06;14.60;;;9.80;;
41061;SDS011;26812;42.662;23.352;2023-03-05T16:04:32;16.58;;;9.73;;
41061;SDS011;26812;42.662;23.352;2023-03-05T16:06:58;17.00;;;10.35;;